Time;durP1;ratioP1;P1;durP2;ratioP2;P2;SDS_P1;SDS_P2;PMS_P1;PMS_P2;Temp;Humidity;BMP_temperature;BMP_pressure;BME280_temperature;BME280_humidity;BME280_pressure;Samples;Min_cycle;Max_cycle;Signal;HPM_P1;HPM_P2
2023/01/13 00:01:16;;;;;;;3.00;0.90;;;;;;;7.64;100.00;95895.06;4882232;29;20039;-88
2023/01/13 00:03:42;;;;;;;2.90;0.73;;;;;;;7.67;100.00;95895.59;4880253;29;20493;-88
2023/01/13 00:06:15;;;;;;;5.47;0.90;;;;;;;7.60;100.00;95888.50;4884573;29;20096;-87
2023/01/13 00:08:48;;;;;;;2.00;0.50;;;;;;;7.62;100.00;95883.94;4894763;29;20050;-87
2023/01/13 00:11:13;;;;;;;2.75;0.52;;;;;;;7.65;100.00;95887.09;4896884;29;20130;-87
2023/01/13 00:13:39;;;;;;;3.67;0.80;;;;;;;7.66;100.00;95888.72;4897631;29;20108;-87
2023/01/13 00:16:18;;;;;;;3.83;0.97;;;;;;;7.62;100.00;95890.00;4874400;29;20044;-87
2023/01/13 00:18:44;;;;;;;2.97;1.00;;;;;;;7.66;100.00;95893.13;4900650;29;20070;-87
2023/01/13 00:21:14;;;;;;;2.47;0.57;;;;;;;7.72;100.00;95893.34;4874286;29;20066;-87
2023/01/13 00:23:41;;;;;;;4.17;0.53;;;;;;;7.68;100.00;95885.94;4882773;29;20479;-88
2023/01/13 00:26:11;;;;;;;2.37;0.70;;;;;;;7.74;100.00;95883.53;4895917;29;20036;-86
2023/01/13 00:28:37;;;;;;;2.17;0.50;;;;;;;7.70;100.00;95876.97;4902583;29;20040;-87
2023/01/13 00:31:07;;;;;;;2.13;0.70;;;;;;;7.72;100.00;95877.66;4901025;29;20028;-87
2023/01/13 00:33:34;;;;;;;2.27;0.50;;;;;;;7.74;100.00;95878.31;4894284;29;20039;-87
2023/01/13 00:36:01;;;;;;;3.47;0.60;;;;;;;7.70;100.00;95874.34;4889086;29;20119;-87
2023/01/13 00:38:29;;;;;;;3.23;0.80;;;;;;;7.70;100.00;95873.53;4906102;29;20035;-87
2023/01/13 00:40:59;;;;;;;2.60;0.60;;;;;;;7.74;100.00;95869.63;4892948;29;20044;-87
2023/01/13 00:43:50;;;;;;;2.60;0.80;;;;;;;7.75;100.00;95866.06;4909142;29;20063;-88
2023/01/13 00:46:19;;;;;;;3.17;1.00;;;;;;;7.73;100.00;95858.34;4880451;29;20037;-87
2023/01/13 00:48:45;;;;;;;4.33;0.63;;;;;;;7.67;100.00;95863.38;4894290;29;20380;-87
2023/01/13 00:51:16;;;;;;;5.20;0.57;;;;;;;7.73;100.00;95858.34;4902836;29;20047;-88
2023/01/13 00:53:47;;;;;;;1.73;0.70;;;;;;;7.67;100.00;95869.41;4889588;29;20043;-88
2023/01/13 00:56:23;;;;;;;3.13;0.40;;;;;;;7.71;100.00;95856.84;4881236;29;20036;-88
2023/01/13 00:58:57;;;;;;;3.70;0.67;;;;;;;7.74;100.00;95849.50;4884219;29;20028;-87
2023/01/13 01:01:23;;;;;;;3.73;1.33;;;;;;;7.72;100.00;95851.47;4883864;29;20047;-88
2023/01/13 01:03:50;;;;;;;4.57;0.90;;;;;;;7.73;100.00;95847.88;4888427;29;20068;-88
2023/01/13 01:06:21;;;;;;;2.67;0.60;;;;;;;7.79;100.00;95846.47;4889392;29;20028;-87
2023/01/13 01:08:46;;;;;;;1.40;0.47;;;;;;;7.82;100.00;95846.16;4897716;29;20052;-88
2023/01/13 01:11:18;;;;;;;3.57;1.00;;;;;;;7.85;100.00;95845.03;4894589;29;20051;-88
2023/01/13 01:13:44;;;;;;;3.03;0.60;;;;;;;7.77;100.00;95848.41;4882587;29;20067;-88
2023/01/13 01:16:13;;;;;;;3.20;0.73;;;;;;;7.77;100.00;95843.97;4873235;29;20039;-87
2023/01/13 01:18:41;;;;;;;2.10;0.50;;;;;;;7.89;100.00;95841.13;4879959;29;20050;-87
2023/01/13 01:21:08;;;;;;;3.30;0.60;;;;;;;7.85;100.00;95835.38;4881440;29;20039;-88
2023/01/13 01:23:35;;;;;;;2.30;0.50;;;;;;;7.86;100.00;95844.06;4880459;29;20139;-88
2023/01/13 01:26:03;;;;;;;2.63;0.60;;;;;;;7.86;100.00;95841.44;4882668;29;20046;-88
2023/01/13 01:28:29;;;;;;;3.57;0.70;;;;;;;7.80;100.00;95843.69;4882730;29;20139;-87
2023/01/13 01:30:54;;;;;;;1.97;0.40;;;;;;;7.85;100.00;95837.19;4884014;29;20093;-88
2023/01/13 01:33:20;;;;;;;4.30;0.70;;;;;;;7.85;100.00;95832.78;4892833;29;20190;-88
2023/01/13 01:35:46;;;;;;;2.47;0.60;;;;;;;7.81;100.00;95834.03;4881574;29;20048;-88
2023/01/13 01:38:12;;;;;;;1.93;0.40;;;;;;;7.82;100.00;95824.41;4880575;29;20041;-88
2023/01/13 01:40:38;;;;;;;4.63;0.70;;;;;;;7.80;100.00;95827.97;4881549;29;20036;-87
2023/01/13 01:46:00;;;;;;;3.00;0.53;;;;;;;7.84;100.00;95822.44;4904057;29;20040;-87
2023/01/13 01:48:28;;;;;;;4.13;0.53;;;;;;;7.85;100.00;95818.88;4902736;29;20039;-87
2023/01/13 01:50:54;;;;;;;4.33;0.70;;;;;;;7.93;100.00;95808.44;4903952;29;20064;-87
2023/01/13 01:53:26;;;;;;;1.83;0.70;;;;;;;7.91;100.00;95805.13;4878046;29;20071;-87
2023/01/13 01:55:52;;;;;;;2.30;0.60;;;;;;;7.96;100.00;95806.34;4884345;29;20098;-87
2023/01/13 01:58:25;;;;;;;4.43;0.90;;;;;;;7.96;100.00;95801.09;4877780;29;20545;-87
2023/01/13 02:00:51;;;;;;;1.63;0.40;;;;;;;7.95;100.00;95789.00;4877327;29;20072;-88
2023/01/13 02:03:17;;;;;;;1.43;0.47;;;;;;;7.94;100.00;95792.56;4881813;29;20036;-88
2023/01/13 02:05:43;;;;;;;3.13;0.50;;;;;;;7.99;100.00;95786.88;4895788;29;20098;-87
2023/01/13 02:08:13;;;;;;;3.60;0.90;;;;;;;7.93;100.00;95793.53;4877183;29;20040;-87
2023/01/13 02:10:44;;;;;;;2.27;0.40;;;;;;;7.95;100.00;95788.19;4881009;29;20816;-87
2023/01/13 02:13:12;;;;;;;3.63;0.53;;;;;;;7.91;100.00;95787.63;4885153;29;20041;-87
2023/01/13 02:16:01;;;;;;;1.90;0.47;;;;;;;7.93;100.00;95782.25;4882357;29;20090;-87
2023/01/13 02:18:59;;;;;;;1.77;0.30;;;;;;;8.04;100.00;95761.03;4901448;29;20080;-87
2023/01/13 02:21:46;;;;;;;3.87;0.60;;;;;;;7.97;100.00;95773.13;4876009;29;20029;-87
2023/01/13 02:27:38;;;;;;;6.30;0.83;;;;;;;7.95;100.00;95777.69;4891402;29;20028;-87
2023/01/13 02:33:36;;;;;;;2.70;0.57;;;;;;;7.94;100.00;95774.22;4901082;29;20040;-87
2023/01/13 02:36:28;;;;;;;3.40;0.40;;;;;;;7.98;100.00;95766.88;4890530;29;20071;-87
2023/01/13 02:39:12;;;;;;;1.77;0.40;;;;;;;7.92;100.00;95762.28;4898897;29;20039;-86
2023/01/13 02:44:46;;;;;;;2.63;0.50;;;;;;;7.79;100.00;95767.94;4889783;29;20131;-88
2023/01/13 02:47:14;;;;;;;1.15;0.40;;;;;;;7.72;100.00;95772.97;4881605;29;20044;-88
2023/01/13 02:49:45;;;;;;;2.53;0.70;;;;;;;7.77;100.00;95760.22;4876890;29;20040;-87
2023/01/13 02:52:35;;;;;;;2.57;0.40;;;;;;;7.79;100.00;95768.75;4882883;29;20115;-87
2023/01/13 02:55:14;;;;;;;1.30;0.40;;;;;;;7.78;100.00;95766.31;4870791;29;20777;-87
2023/01/13 02:57:42;;;;;;;5.40;0.63;;;;;;;7.74;100.00;95757.09;4861441;29;20048;-88
2023/01/13 03:00:11;;;;;;;2.30;0.43;;;;;;;7.79;100.00;95747.81;4867095;29;20487;-88
2023/01/13 03:02:40;;;;;;;1.90;0.60;;;;;;;7.82;100.00;95736.22;4865128;29;20107;-88
2023/01/13 03:05:06;;;;;;;2.70;0.50;;;;;;;7.88;100.00;95742.63;4870223;29;20042;-87
2023/01/13 03:07:54;;;;;;;0.47;0.23;;;;;;;7.86;100.00;95734.94;4865123;29;20160;-87
2023/01/13 03:10:48;;;;;;;1.07;0.30;;;;;;;7.88;100.00;95734.75;4871395;29;20073;-88
2023/01/13 03:13:28;;;;;;;1.50;0.50;;;;;;;7.92;100.00;95730.88;4882064;29;20096;-87
2023/01/13 03:16:39;;;;;;;2.67;0.50;;;;;;;7.85;100.00;95725.44;4895991;29;20092;-88
2023/01/13 03:19:34;;;;;;;3.60;0.53;;;;;;;7.81;100.00;95721.47;4882965;29;20520;-88
2023/01/13 03:22:34;;;;;;;1.70;0.60;;;;;;;7.79;100.00;95721.63;4884745;29;20137;-88
2023/01/13 03:25:32;;;;;;;4.20;0.80;;;;;;;7.80;100.00;95730.31;4871696;29;20483;-88
2023/01/13 03:28:05;;;;;;;2.00;0.50;;;;;;;7.85;100.00;95735.09;4869603;29;20045;-88
2023/01/13 03:30:53;;;;;;;3.43;0.50;;;;;;;7.80;100.00;95730.31;4875717;29;20539;-88
2023/01/13 03:33:28;;;;;;;3.00;0.60;;;;;;;7.77;100.00;95726.19;4882158;29;20413;-86
2023/01/13 03:36:00;;;;;;;2.57;0.63;;;;;;;7.80;100.00;95717.22;4876038;29;20036;-85
2023/01/13 03:38:39;;;;;;;1.48;0.38;;;;;;;7.85;100.00;95717.59;4885477;29;20127;-85
2023/01/13 03:41:24;;;;;;;5.17;0.63;;;;;;;7.78;100.00;95735.72;4867447;29;20040;-86
2023/01/13 03:44:23;;;;;;;1.67;0.43;;;;;;;7.78;100.00;95729.66;4873298;29;20069;-87
2023/01/13 03:47:19;;;;;;;3.03;0.40;;;;;;;7.85;100.00;95725.44;4887497;29;20376;-87
2023/01/13 03:49:54;;;;;;;1.27;0.33;;;;;;;7.85;100.00;95722.00;4872590;29;20035;-87
2023/01/13 03:52:39;;;;;;;3.20;0.53;;;;;;;7.77;100.00;95720.94;4870870;29;20075;-87
2023/01/13 03:55:33;;;;;;;2.07;0.33;;;;;;;7.79;100.00;95726.06;4868621;29;20067;-87
2023/01/13 03:58:28;;;;;;;3.83;1.10;;;;;;;7.80;100.00;95718.03;4871030;29;20049;-87
2023/01/13 04:01:23;;;;;;;0.50;0.27;;;;;;;7.82;100.00;95717.91;4902146;29;20041;-87
2023/01/13 04:03:58;;;;;;;2.33;0.53;;;;;;;7.81;100.00;95718.84;4884516;29;20044;-86
2023/01/13 04:06:30;;;;;;;2.33;0.50;;;;;;;7.78;100.00;95713.94;4876876;29;20057;-87
2023/01/13 04:09:34;;;;;;;2.87;0.60;;;;;;;7.75;100.00;95715.06;4870973;29;20404;-87
2023/01/13 04:12:07;;;;;;;2.20;0.43;;;;;;;7.71;100.00;95718.97;4870632;29;20039;-87
2023/01/13 04:14:34;;;;;;;3.10;1.47;;;;;;;7.68;100.00;95711.44;4884644;29;20049;-86
2023/01/13 04:17:00;;;;;;;2.37;0.37;;;;;;;7.70;100.00;95709.47;4862722;29;20131;-87
2023/01/13 04:19:38;;;;;;;3.93;0.60;;;;;;;7.67;100.00;95717.63;4865527;29;20101;-87
2023/01/13 04:22:04;;;;;;;0.47;0.30;;;;;;;7.72;100.00;95702.28;4862919;29;20052;-87
2023/01/13 04:24:30;;;;;;;2.60;0.43;;;;;;;7.77;100.00;95707.88;4872539;29;20166;-87
2023/01/13 04:26:57;;;;;;;2.13;0.50;;;;;;;7.77;100.00;95713.09;4872577;29;20055;-87
2023/01/13 04:29:23;;;;;;;3.00;0.70;;;;;;;7.74;100.00;95709.97;4881688;29;20032;-87
2023/01/13 04:31:49;;;;;;;4.63;0.97;;;;;;;7.79;100.00;95705.94;4887352;29;20039;-87
2023/01/13 04:34:14;;;;;;;4.53;1.23;;;;;;;7.81;100.00;95703.13;4866505;29;20453;-86
2023/01/13 04:36:41;;;;;;;3.47;0.63;;;;;;;7.74;100.00;95712.59;4884267;29;20510;-87
2023/01/13 04:39:07;;;;;;;2.27;0.70;;;;;;;7.74;100.00;95702.94;4868362;29;20275;-87
2023/01/13 04:41:56;;;;;;;4.47;1.07;;;;;;;7.68;100.00;95714.06;4874060;29;20122;-86
2023/01/13 04:44:34;;;;;;;2.90;0.83;;;;;;;7.73;100.00;95708.34;4888465;29;20036;-87
2023/01/13 04:47:01;;;;;;;2.40;0.60;;;;;;;7.74;100.00;95709.97;4884223;29;20028;-87
2023/01/13 04:49:28;;;;;;;4.67;1.00;;;;;;;7.80;100.00;95709.38;4877629;29;20040;-87
2023/01/13 04:51:54;;;;;;;1.77;0.57;;;;;;;7.75;100.00;95701.16;4868736;29;20833;-87
2023/01/13 04:54:20;;;;;;;6.00;0.70;;;;;;;7.70;100.00;95704.22;4877254;29;20044;-87
2023/01/13 04:56:45;;;;;;;5.70;0.70;;;;;;;7.76;100.00;95706.22;4873387;29;20524;-87
2023/01/13 04:59:12;;;;;;;1.90;0.60;;;;;;;7.77;100.00;95707.06;4875584;29;20153;-87
2023/01/13 05:01:38;;;;;;;2.23;0.90;;;;;;;7.67;100.00;95701.91;4894595;29;20064;-87
2023/01/13 05:04:04;;;;;;;4.23;0.70;;;;;;;7.88;100.00;95698.09;4888182;29;20785;-87
2023/01/13 05:06:30;;;;;;;1.87;0.50;;;;;;;7.97;100.00;95699.81;4890850;29;20037;-87
2023/01/13 05:08:56;;;;;;;1.30;0.57;;;;;;;7.94;100.00;95687.00;4864250;29;20056;-86
2023/01/13 05:17:18;;;;;;;2.47;0.73;;;;;;;7.87;100.00;95686.81;4897786;29;20055;-87
2023/01/13 05:19:43;;;;;;;2.13;0.80;;;;;;;7.97;100.00;95682.28;4865302;29;20044;-87
2023/01/13 05:27:37;;;;;;;3.43;0.60;;;;;;;7.88;100.00;95682.41;4885679;29;20043;-87
2023/01/13 05:30:05;;;;;;;1.23;0.50;;;;;;;7.91;100.00;95685.53;4867313;29;20041;-87
2023/01/13 05:32:31;;;;;;;1.73;0.47;;;;;;;7.86;100.00;95684.38;4893232;29;20066;-87
2023/01/13 05:34:58;;;;;;;0.67;0.23;;;;;;;7.95;100.00;95684.25;4854834;29;20044;-87
2023/01/13 05:37:24;;;;;;;2.00;0.50;;;;;;;7.99;100.00;95680.34;4871143;29;20036;-86
2023/01/13 05:45:20;;;;;;;2.47;0.40;;;;;;;7.99;100.00;95679.53;4879469;29;20067;-86
2023/01/13 05:47:46;;;;;;;1.50;0.63;;;;;;;7.95;100.00;95686.88;4874188;29;20060;-87
2023/01/13 05:50:12;;;;;;;2.27;0.57;;;;;;;7.95;100.00;95689.50;4872464;29;20077;-86
2023/01/13 05:52:38;;;;;;;3.00;0.70;;;;;;;7.97;100.00;95684.09;4867971;29;20029;-87
2023/01/13 05:55:04;;;;;;;0.90;0.47;;;;;;;8.00;100.00;95689.00;4860022;29;20037;-87
2023/01/13 05:57:30;;;;;;;1.53;0.40;;;;;;;7.95;100.00;95689.50;4871626;29;20032;-87
2023/01/13 05:59:56;;;;;;;5.00;1.00;;;;;;;7.98;100.00;95677.88;4868158;29;20452;-87
2023/01/13 06:02:21;;;;;;;1.23;0.40;;;;;;;8.05;100.00;95689.38;4869198;29;20127;-87
2023/01/13 06:04:47;;;;;;;1.03;0.20;;;;;;;7.97;100.00;95684.09;4868969;29;20052;-86
2023/01/13 06:07:13;;;;;;;1.03;0.33;;;;;;;7.99;100.00;95676.91;4874045;29;20040;-86
2023/01/13 06:09:39;;;;;;;2.87;0.73;;;;;;;7.95;100.00;95678.22;4863611;29;20039;-86
2023/01/13 06:12:14;;;;;;;1.87;0.50;;;;;;;7.99;100.00;95680.34;4860297;29;20032;-86
2023/01/13 06:14:40;;;;;;;1.80;0.63;;;;;;;7.99;100.00;95676.91;4873563;29;20052;-84
2023/01/13 06:17:11;;;;;;;2.30;0.50;;;;;;;7.98;100.00;95681.31;4863463;29;20040;-86
2023/01/13 06:19:39;;;;;;;1.67;0.53;;;;;;;7.95;100.00;95670.34;4869799;29;20120;-86
2023/01/13 06:22:27;;;;;;;0.87;0.40;;;;;;;7.91;100.00;95671.63;4864163;29;20071;-87
2023/01/13 06:24:54;;;;;;;1.40;0.50;;;;;;;7.98;100.00;95667.38;4870623;29;20045;-87
2023/01/13 06:27:25;;;;;;;3.03;0.40;;;;;;;7.97;100.00;95658.72;4866122;29;20039;-87
2023/01/13 06:29:55;;;;;;;1.57;0.27;;;;;;;7.98;100.00;95662.16;4862598;29;20072;-88
2023/01/13 06:32:28;;;;;;;2.20;0.40;;;;;;;7.96;100.00;95653.66;4879291;29;20044;-87
2023/01/13 06:35:00;;;;;;;2.17;0.43;;;;;;;7.93;100.00;95654.78;4865134;29;20052;-88
2023/01/13 06:37:27;;;;;;;1.87;0.30;;;;;;;7.90;100.00;95659.50;4860114;29;20075;-88
2023/01/13 06:39:59;;;;;;;2.67;0.73;;;;;;;7.86;100.00;95663.44;4863811;29;20037;-87
2023/01/13 06:45:16;;;;;;;0.80;0.40;;;;;;;7.89;100.00;95663.94;4876115;29;20044;-86
2023/01/13 06:47:42;;;;;;;1.37;0.40;;;;;;;7.91;100.00;95671.63;4878294;29;20088;-88
2023/01/13 06:50:10;;;;;;;3.10;1.17;;;;;;;7.86;100.00;95677.34;4871399;29;20111;-88
2023/01/13 06:52:36;;;;;;;1.93;0.40;;;;;;;7.96;100.00;95667.56;4865619;29;20039;-86
2023/01/13 06:55:02;;;;;;;1.10;0.47;;;;;;;7.94;100.00;95668.69;4863715;29;20100;-87
2023/01/13 06:57:28;;;;;;;2.23;0.70;;;;;;;7.98;100.00;95683.94;4858547;29;20052;-87
2023/01/13 06:59:57;;;;;;;1.67;0.40;;;;;;;7.92;100.00;95683.75;4861213;29;20025;-88
2023/01/13 07:02:22;;;;;;;1.40;0.40;;;;;;;7.91;100.00;95682.09;4860869;29;20036;-87
2023/01/13 07:04:48;;;;;;;1.47;0.50;;;;;;;7.93;100.00;95682.75;4858809;29;20025;-87
2023/01/13 07:07:14;;;;;;;1.10;0.50;;;;;;;7.94;100.00;95687.00;4859581;29;20172;-87
2023/01/13 07:10:03;;;;;;;2.63;0.50;;;;;;;7.94;100.00;95690.44;4868974;29;20126;-87
2023/01/13 07:12:29;;;;;;;2.40;0.40;;;;;;;7.90;100.00;95685.69;4883038;29;20061;-87
2023/01/13 07:15:17;;;;;;;2.37;0.67;;;;;;;7.89;100.00;95691.91;4857796;29;20044;-88
2023/01/13 07:17:42;;;;;;;2.30;0.50;;;;;;;7.88;100.00;95695.50;4873518;29;20051;-87
2023/01/13 07:20:09;;;;;;;2.43;0.40;;;;;;;7.94;100.00;95682.59;4867325;29;20045;-87
2023/01/13 07:22:37;;;;;;;1.70;0.40;;;;;;;7.92;100.00;95683.75;4863587;29;20033;-87
2023/01/13 07:25:03;;;;;;;1.67;0.60;;;;;;;7.88;100.00;95682.41;4865610;29;20108;-87
2023/01/13 07:27:28;;;;;;;0.77;0.33;;;;;;;7.89;100.00;95684.06;4877217;29;20498;-88
2023/01/13 07:30:04;;;;;;;2.57;0.70;;;;;;;7.89;100.00;95686.69;4863050;29;20080;-87
2023/01/13 07:32:32;;;;;;;2.10;0.77;;;;;;;7.98;100.00;95688.34;4882539;29;20067;-87
2023/01/13 07:39:21;;;;;;;2.60;0.50;;;;;;;7.96;100.00;95690.31;4895734;29;20490;-87
2023/01/13 12:22:09;;;;;;;7.17;1.00;;;;;;;6.71;100.00;95916.09;4884560;29;20095;-90
2023/01/13 12:25:16;;;;;;;4.80;1.27;;;;;;;6.75;100.00;95904.38;4864729;29;20056;-83
2023/01/13 12:27:52;;;;;;;7.27;2.83;;;;;;;6.53;100.00;95907.34;4883687;29;20037;-86
2023/01/13 12:30:38;;;;;;;6.63;1.67;;;;;;;6.50;100.00;95899.78;4867676;29;20318;-87
2023/01/13 12:33:39;;;;;;;6.17;1.27;;;;;;;6.42;100.00;95902.28;4880684;29;20076;-87
2023/01/13 12:36:16;;;;;;;3.20;0.70;;;;;;;6.23;100.00;95898.75;4879897;29;20044;-88
2023/01/13 12:39:12;;;;;;;4.03;1.40;;;;;;;6.14;100.00;95904.84;4876721;29;20039;-85
2023/01/13 12:45:09;;;;;;;7.23;1.70;;;;;;;6.14;100.00;95923.13;4864506;29;20091;-85
2023/01/13 12:47:47;;;;;;;6.47;1.57;;;;;;;6.11;100.00;95928.59;4857850;29;20052;-86
2023/01/13 12:50:22;;;;;;;5.20;0.70;;;;;;;6.10;100.00;95926.94;4877233;29;20040;-85
2023/01/13 12:53:20;;;;;;;4.37;0.80;;;;;;;6.13;100.00;95934.50;4865393;29;20120;-85
2023/01/13 12:55:52;;;;;;;5.67;0.93;;;;;;;6.11;100.00;95932.03;4882849;29;20052;-83
2023/01/13 12:58:27;;;;;;;4.13;0.90;;;;;;;6.02;100.00;95929.44;4876548;29;20041;-83
2023/01/13 13:00:59;;;;;;;5.83;0.97;;;;;;;6.04;100.00;95923.13;4869911;29;20025;-84
2023/01/13 13:03:33;;;;;;;4.97;0.88;;;;;;;6.16;100.00;95929.00;4882261;29;20714;-84
2023/01/13 13:06:21;;;;;;;3.43;0.83;;;;;;;5.95;100.00;95931.78;4873183;29;20045;-84
2023/01/13 13:09:03;;;;;;;3.03;0.70;;;;;;;5.92;100.00;95932.00;4885691;29;20700;-84
2023/01/13 13:14:35;;;;;;;9.97;3.00;;;;;;;6.04;100.00;95932.75;4884569;29;20064;-84
2023/01/13 13:17:20;;;;;;;4.40;0.97;;;;;;;6.10;100.00;95924.31;4870257;29;20131;-85
2023/01/13 13:19:47;;;;;;;2.83;1.00;;;;;;;6.19;100.00;95926.13;4858279;29;20725;-84
2023/01/13 13:22:17;;;;;;;3.87;1.00;;;;;;;6.21;100.00;95921.59;4865460;29;20484;-84
2023/01/13 13:24:49;;;;;;;4.73;1.00;;;;;;;6.11;100.00;95924.22;4874338;29;20100;-85
2023/01/13 13:27:30;;;;;;;5.20;1.00;;;;;;;5.97;100.00;95931.63;4856479;29;20135;-84
2023/01/13 13:29:59;;;;;;;3.83;0.60;;;;;;;5.80;100.00;95928.72;4860402;29;20191;-84
2023/01/13 13:32:49;;;;;;;2.17;0.67;;;;;;;6.21;100.00;95926.81;4863485;29;20092;-85
2023/01/13 13:36:06;;;;;;;2.13;0.53;;;;;;;6.06;100.00;95922.97;4870415;29;20041;-85
2023/01/13 13:47:38;;;;;;;2.53;0.90;;;;;;;5.95;100.00;95941.41;4890102;29;20044;-84
2023/01/13 13:50:13;;;;;;;2.87;1.00;;;;;;;6.35;100.00;95944.66;4870295;29;20354;-84
2023/01/13 13:53:04;;;;;;;4.70;1.30;;;;;;;6.60;100.00;95932.75;4861816;29;20040;-84
2023/01/13 13:55:31;;;;;;;4.20;1.10;;;;;;;6.68;100.00;95934.66;4854392;29;20052;-84
2023/01/13 13:58:00;;;;;;;4.87;0.83;;;;;;;6.58;100.00;95949.56;4865519;29;20044;-85
2023/01/13 14:00:35;;;;;;;3.50;0.80;;;;;;;6.41;100.00;95956.34;4872158;29;20079;-84
2023/01/13 14:03:02;;;;;;;2.50;0.73;;;;;;;6.63;100.00;95970.03;4849793;29;20060;-85
2023/01/13 14:05:29;;;;;;;4.47;1.50;;;;;;;6.78;100.00;95976.47;4828059;29;20044;-84
2023/01/13 14:08:11;;;;;;;2.67;0.90;;;;;;;6.70;100.00;95964.09;4761225;29;20059;-85
2023/01/13 14:10:40;;;;;;;3.83;0.90;;;;;;;6.42;100.00;95978.03;4798808;29;20083;-84
2023/01/13 14:13:27;;;;;;;6.80;1.43;;;;;;;6.16;100.00;95977.78;4881770;29;20037;-84
2023/01/13 14:16:02;;;;;;;2.77;1.50;;;;;;;6.33;100.00;95980.50;4879472;29;20056;-84
2023/01/13 14:18:40;;;;;;;2.93;0.77;;;;;;;6.23;100.00;95979.69;4881827;29;20040;-85
2023/01/13 14:21:26;;;;;;;2.73;0.63;;;;;;;5.96;100.00;95987.41;4866436;29;20058;-85
2023/01/13 14:23:55;;;;;;;3.67;0.90;;;;;;;5.86;100.00;95987.34;4876887;29;20037;-85
2023/01/13 14:26:30;;;;;;;1.97;0.70;;;;;;;5.82;100.00;95983.38;4881349;29;20115;-85
2023/01/13 14:28:58;;;;;;;3.77;0.90;;;;;;;5.77;100.00;95975.97;4863858;29;20564;-85
2023/01/13 14:31:24;;;;;;;3.17;0.60;;;;;;;5.67;100.00;95994.22;4864132;29;20096;-86
2023/01/13 14:34:09;;;;;;;4.00;0.90;;;;;;;5.64;100.00;95993.66;4877453;29;20041;-85
2023/01/13 14:36:37;;;;;;;5.07;0.97;;;;;;;5.63;100.00;96003.28;4867864;29;20045;-86
2023/01/13 14:39:02;;;;;;;3.87;1.50;;;;;;;5.66;100.00;96010.81;4870650;29;20037;-84
2023/01/13 14:41:41;;;;;;;6.50;1.00;;;;;;;5.66;100.00;96010.81;4884914;29;20043;-85
2023/01/13 14:44:19;;;;;;;4.37;0.97;;;;;;;5.67;100.00;96017.69;4870212;29;20403;-85
2023/01/13 14:46:45;;;;;;;4.73;1.37;;;;;;;5.69;100.00;96022.78;4876011;29;20087;-85
2023/01/13 14:49:40;;;;;;;5.07;1.00;;;;;;;5.62;100.00;96030.31;4878407;29;20037;-85
2023/01/13 14:52:10;;;;;;;6.10;1.40;;;;;;;5.58;100.00;96023.72;4879578;29;20044;-85
2023/01/13 14:54:44;;;;;;;4.33;1.03;;;;;;;5.60;100.00;96031.38;4879384;29;20040;-85
2023/01/13 14:57:31;;;;;;;4.47;1.37;;;;;;;5.57;100.00;96036.91;4869844;29;20052;-84
2023/01/13 15:00:12;;;;;;;4.47;0.90;;;;;;;5.54;100.00;96058.03;4887509;29;20033;-85
2023/01/13 15:02:56;;;;;;;3.97;1.17;;;;;;;5.60;100.00;96065.31;4863577;29;20117;-85
2023/01/13 15:05:27;;;;;;;4.50;1.30;;;;;;;5.52;100.00;96096.44;4885668;29;20399;-85
2023/01/13 15:08:10;;;;;;;5.30;1.07;;;;;;;5.46;100.00;96100.41;4867506;29;20036;-85
2023/01/13 15:10:53;;;;;;;8.63;2.60;;;;;;;5.40;100.00;96085.31;4892705;29;20088;-85
2023/01/13 15:13:34;;;;;;;6.20;2.03;;;;;;;5.36;100.00;96091.72;4871950;29;20045;-86
2023/01/13 15:16:07;;;;;;;8.50;1.50;;;;;;;5.34;100.00;96089.25;4882208;29;20490;-86
2023/01/13 15:18:46;;;;;;;6.18;0.80;;;;;;;5.30;100.00;96094.84;4869921;29;20092;-86
2023/01/13 15:21:16;;;;;;;6.13;0.90;;;;;;;5.17;100.00;96119.34;4854172;29;20056;-85
2023/01/13 15:23:46;;;;;;;5.27;1.23;;;;;;;5.19;100.00;96129.63;4871773;29;20472;-85
2023/01/13 15:26:40;;;;;;;6.60;1.00;;;;;;;5.22;100.00;96118.13;4890540;29;20203;-92
2023/01/13 15:29:15;;;;;;;4.73;1.27;;;;;;;5.07;100.00;96123.69;4901792;29;20037;-91
2023/01/13 15:31:45;;;;;;;5.70;0.77;;;;;;;5.01;100.00;96120.75;4875736;29;20198;-92
2023/01/13 15:34:23;;;;;;;5.23;1.50;;;;;;;5.04;100.00;96128.31;4871805;29;20088;-90
2023/01/13 15:36:49;;;;;;;5.43;1.23;;;;;;;4.95;100.00;96135.13;4892850;29;20083;-92
2023/01/13 15:39:15;;;;;;;4.87;1.30;;;;;;;5.05;100.00;96143.81;4879525;29;20017;-92
2023/01/13 15:47:10;;;;;;;8.87;1.83;;;;;;;4.88;100.00;96168.66;4890257;29;20053;-91
2023/01/13 15:49:39;;;;;;;2.83;0.93;;;;;;;4.81;100.00;96167.53;4871323;29;20040;-90
2023/01/13 15:52:28;;;;;;;7.60;1.30;;;;;;;4.74;100.00;96168.97;4851285;29;20458;-91
2023/01/13 15:54:54;;;;;;;4.50;1.20;;;;;;;4.77;100.00;96173.13;4848831;29;20064;-89
2023/01/13 15:57:26;;;;;;;6.43;1.17;;;;;;;4.61;100.00;96168.31;4860019;29;20464;-90
2023/01/13 15:59:55;;;;;;;6.97;2.33;;;;;;;4.56;100.00;96180.88;4859962;29;20053;-90
2023/01/13 16:02:29;;;;;;;5.87;2.40;;;;;;;4.55;100.00;96179.22;4850706;29;20123;-93
2023/01/13 16:04:58;;;;;;;8.60;1.80;;;;;;;5.00;100.00;96184.25;4849648;29;20143;-90
2023/01/13 16:07:24;;;;;;;4.37;1.50;;;;;;;4.52;100.00;96188.09;4854174;29;20032;-91
2023/01/13 16:09:51;;;;;;;6.17;1.57;;;;;;;4.36;100.00;96187.66;4832795;29;20372;-91
2023/01/13 16:12:19;;;;;;;3.53;1.17;;;;;;;4.32;100.00;96186.25;4844078;29;20051;-93
2023/01/13 16:14:48;;;;;;;7.30;1.63;;;;;;;4.28;100.00;96198.69;4843014;29;20020;-93
2023/01/13 16:17:15;;;;;;;7.27;3.30;;;;;;;4.52;100.00;96205.50;4854839;29;20017;-92
2023/01/13 16:19:42;;;;;;;5.77;1.23;;;;;;;4.68;100.00;96211.16;4867865;29;20029;-94
2023/01/13 16:22:09;;;;;;;5.73;2.63;;;;;;;4.32;100.00;96212.28;4862489;29;20045;-94
2023/01/13 16:24:35;;;;;;;5.33;1.33;;;;;;;4.27;100.00;96215.28;4853975;29;20051;-94
2023/01/13 16:27:01;;;;;;;4.97;1.60;;;;;;;4.14;100.00;96218.00;4853075;29;20044;-94
2023/01/13 16:29:27;;;;;;;6.50;1.03;;;;;;;4.12;100.00;96216.47;4858489;29;20177;-94
2023/01/13 16:31:54;;;;;;;4.10;1.20;;;;;;;4.06;100.00;96222.13;4823410;29;20044;-84
2023/01/13 16:34:20;;;;;;;5.90;1.63;;;;;;;4.04;100.00;96240.50;4758940;29;20165;-84
2023/01/13 16:36:49;;;;;;;7.77;1.80;;;;;;;4.16;100.00;96247.34;4799037;29;20040;-89
2023/01/13 16:39:21;;;;;;;5.67;1.93;;;;;;;4.23;100.00;96253.72;4799341;29;20040;-85
2023/01/13 16:41:48;;;;;;;7.73;1.73;;;;;;;4.15;100.00;96256.09;4819975;29;20040;-85
2023/01/13 16:44:13;;;;;;;3.70;1.20;;;;;;;4.12;100.00;96260.72;4830669;29;20041;-86
2023/01/13 16:46:39;;;;;;;7.53;1.77;;;;;;;4.12;100.00;96269.34;4866387;29;20097;-85
2023/01/13 16:49:10;;;;;;;6.77;2.07;;;;;;;4.14;100.00;96270.06;4874281;29;20052;-88
2023/01/13 16:51:36;;;;;;;8.17;2.57;;;;;;;4.23;100.00;96264.16;4864921;29;20063;-87
2023/01/13 16:54:03;;;;;;;9.60;3.37;;;;;;;4.23;100.00;96263.31;4876489;29;20067;-86
2023/01/13 16:56:48;;;;;;;8.13;2.20;;;;;;;4.25;100.00;96262.22;4883135;29;20055;-85
2023/01/13 16:59:17;;;;;;;10.27;3.20;;;;;;;4.14;100.00;96264.03;4865415;29;20445;-86
2023/01/13 17:01:45;;;;;;;7.47;2.30;;;;;;;4.22;100.00;96264.25;4864837;29;20041;-88
2023/01/13 17:04:24;;;;;;;7.70;1.90;;;;;;;4.28;100.00;96255.16;4871587;29;20044;-86
2023/01/13 17:07:08;;;;;;;5.27;0.97;;;;;;;4.31;100.00;96254.91;4896240;29;20128;-88
2023/01/13 17:09:38;;;;;;;2.60;0.77;;;;;;;4.28;100.00;96260.34;4875023;29;20127;-89
2023/01/13 17:12:36;;;;;;;6.67;1.63;;;;;;;4.23;100.00;96266.75;4869295;29;20037;-88
2023/01/13 17:15:03;;;;;;;5.10;1.00;;;;;;;4.23;100.00;96265.94;4759428;29;20041;-88
2023/01/13 17:17:38;;;;;;;7.33;1.60;;;;;;;4.23;100.00;96258.13;4793230;29;20072;-88
2023/01/13 17:21:11;;;;;;;6.07;1.43;;;;;;;4.34;100.00;96254.66;4829862;29;20058;-93
2023/01/13 17:28:27;;;;;;;5.80;1.87;;;;;;;4.21;100.00;96260.00;4791613;30;20100;-92
2023/01/13 17:30:53;;;;;;;;;;;;;;;4.17;100.00;96269.00;4731090;30;20035;-89
2023/01/13 17:33:24;;;;;;;12.33;3.90;;;;;;;4.09;100.00;96277.41;4711182;30;21369;-90
2023/01/13 17:36:18;;;;;;;9.23;3.63;;;;;;;4.01;100.00;96277.97;4730596;29;20051;-90
2023/01/13 17:38:51;;;;;;;8.15;3.60;;;;;;;4.02;100.00;96284.00;4707786;30;20039;-89
2023/01/13 17:41:20;;;;;;;9.93;2.70;;;;;;;4.06;100.00;96282.84;4770514;29;20044;-91
2023/01/13 17:43:47;;;;;;;9.40;2.20;;;;;;;3.99;100.00;96281.63;4808321;29;20037;-90
2023/01/13 17:46:17;;;;;;;4.73;1.83;;;;;;;3.97;100.00;96286.16;4795848;29;21157;-90